Weather at Calaveras Power Station Helipad

Public forecast

Using degrees Fahrenheit for public forecast. Weather courtesy of forecast.io.

Closest aviation weather report (METAR) to Calaveras Power Station Helipad

Closest report is Stinson Municipal Airport, 8.0 nm (14.8 km) WNW.

2024/07/16 19:53 (retrieved 48 minutes ago)

KSSF 161953Z VRB04G19KT 10SM FEW040 36/21 A2993 RMK AO2 SLP120 T03560211

Closest aviation forecast (TAF) to Calaveras Power Station Helipad

Closest forecast is Stinson Municipal Airport, 8.0 nm (14.8 km) WNW.

2024/07/16 18:48 (retrieved 2 hours ago)

TAF KSSF 161745Z 1618/1718 17010KT P6SM SCT035 FM162300 14012KT P6SM FEW250